createdAt,value
2024-02-16T00:03:01.242Z,16.10
2024-02-16T00:10:21.390Z,16.17
2024-02-16T00:17:41.255Z,16.55
2024-02-16T00:24:59.791Z,17.27
2024-02-16T00:32:18.155Z,19.35
2024-02-16T00:39:37.904Z,19.27
2024-02-16T00:46:56.214Z,19.35
2024-02-16T00:54:14.909Z,19.20
2024-02-16T01:01:34.731Z,19.88
2024-02-16T01:08:52.999Z,21.48
2024-02-16T01:16:12.325Z,21.05
2024-02-16T01:23:32.319Z,20.52
2024-02-16T01:30:51.124Z,20.67
2024-02-16T01:38:09.968Z,21.80
2024-02-16T01:45:29.889Z,21.60
2024-02-16T01:52:49.543Z,20.83
2024-02-16T02:00:09.546Z,21.13
2024-02-16T02:07:30.069Z,21.65
2024-02-16T02:14:49.070Z,20.48
2024-02-16T02:22:15.635Z,21.42
2024-02-16T02:29:34.864Z,19.98
2024-02-16T02:36:54.795Z,19.75
2024-02-16T02:44:17.708Z,20.60
2024-02-16T02:51:36.185Z,21.08
2024-02-16T02:58:54.564Z,20.70
2024-02-16T03:06:14.787Z,21.05
2024-02-16T03:13:34.562Z,20.88
2024-02-16T03:20:53.023Z,21.67
2024-02-16T03:28:14.664Z,21.92
2024-02-16T03:35:33.102Z,22.90
2024-02-16T03:42:51.650Z,23.25
2024-02-16T03:50:12.181Z,22.98
2024-02-16T03:57:30.708Z,22.92
2024-02-16T04:04:49.097Z,21.88
2024-02-16T04:12:10.819Z,23.85
2024-02-16T04:19:29.481Z,22.70
2024-02-16T04:26:47.852Z,23.55
2024-02-16T04:34:07.800Z,23.90
2024-02-16T04:41:26.102Z,22.13
2024-02-16T04:48:44.830Z,25.30
2024-02-16T04:56:06.238Z,25.23
2024-02-16T05:03:24.691Z,25.70
2024-02-16T05:10:43.095Z,27.67
2024-02-16T05:18:03.594Z,25.55
2024-02-16T05:25:22.647Z,25.15
2024-02-16T05:32:43.336Z,23.48
2024-02-16T05:40:20.081Z,24.63
2024-02-16T05:47:39.702Z,23.10
2024-02-16T05:54:58.212Z,24.10
2024-02-16T06:02:18.973Z,23.67
2024-02-16T06:09:38.854Z,22.33
2024-02-16T06:16:57.819Z,22.90
2024-02-16T06:24:20.386Z,21.70
2024-02-16T06:31:38.805Z,20.77
2024-02-16T06:38:58.221Z,21.60
2024-02-16T06:46:17.885Z,20.08
2024-02-16T06:53:36.103Z,19.77
2024-02-16T07:00:54.607Z,20.55
2024-02-16T07:08:14.351Z,19.77
2024-02-16T07:15:33.696Z,18.77
2024-02-16T07:22:53.063Z,18.67
2024-02-16T07:30:18.400Z,17.10
2024-02-16T07:37:43.468Z,17.48
2024-02-16T07:45:02.087Z,15.95
2024-02-16T07:52:21.974Z,13.80
2024-02-16T07:59:41.864Z,13.45
2024-02-16T08:07:02.678Z,12.77
2024-02-16T08:14:22.623Z,11.20
2024-02-16T08:21:40.926Z,12.32
2024-02-16T08:28:59.663Z,11.05
2024-02-16T08:36:20.338Z,10.93
2024-02-16T08:43:38.951Z,10.68
2024-02-16T08:50:57.308Z,10.32
2024-02-16T08:58:17.442Z,10.30
2024-02-16T09:05:36.188Z,10.07
2024-02-16T09:12:54.632Z,10.10
2024-02-16T09:20:15.545Z,9.35
2024-02-16T09:27:34.015Z,9.40
2024-02-16T09:34:52.947Z,8.13
2024-02-16T09:42:16.012Z,6.50
2024-02-16T09:49:39.951Z,6.50
2024-02-16T09:56:59.602Z,6.63
2024-02-16T10:04:19.406Z,7.22
2024-02-16T10:11:40.194Z,6.70
2024-02-16T10:19:00.234Z,6.35
2024-02-16T10:26:20.238Z,6.80
2024-02-16T10:33:39.830Z,6.53
2024-02-16T10:41:01.127Z,6.47
2024-02-16T10:48:21.574Z,6.80
2024-02-16T10:55:40.053Z,7.10
2024-02-16T11:03:00.795Z,6.90
2024-02-16T11:10:20.706Z,7.40
2024-02-16T11:17:39.454Z,7.43
2024-02-16T11:25:00.591Z,6.55
2024-02-16T11:32:22.661Z,7.97
2024-02-16T11:39:42.682Z,6.18
2024-02-16T11:47:01.300Z,7.85
2024-02-16T11:54:20.990Z,6.35
2024-02-16T12:01:39.288Z,6.05
2024-02-16T12:08:57.820Z,5.85
2024-02-16T12:16:17.433Z,5.80
2024-02-16T12:23:36.501Z,6.82
2024-02-16T12:30:54.873Z,5.53
2024-02-16T12:38:15.020Z,4.93
2024-02-16T12:45:34.232Z,3.88
2024-02-16T12:52:59.423Z,3.67
2024-02-16T13:00:23.893Z,2.92
2024-02-16T13:07:43.284Z,2.78
2024-02-16T13:15:14.505Z,2.40
2024-02-16T13:22:42.972Z,2.67
2024-02-16T13:30:01.560Z,3.00
2024-02-16T13:37:20.011Z,2.78
2024-02-16T13:44:39.857Z,2.47
2024-02-16T13:52:00.006Z,2.53
2024-02-16T13:59:19.924Z,2.80
2024-02-16T14:06:40.733Z,3.50
2024-02-16T14:13:59.216Z,3.42
2024-02-16T14:21:17.497Z,3.03
2024-02-16T14:28:37.110Z,3.30
2024-02-16T14:35:55.407Z,3.05
2024-02-16T14:43:13.770Z,2.90
2024-02-16T14:50:36.123Z,3.60
2024-02-16T14:57:55.420Z,3.80
2024-02-16T15:05:14.111Z,3.70
2024-02-16T15:12:34.019Z,3.95
2024-02-16T15:19:52.808Z,3.25
2024-02-16T15:27:11.924Z,4.18
2024-02-16T15:34:32.292Z,3.67
2024-02-16T15:41:50.801Z,4.60
2024-02-16T15:49:09.576Z,4.13
2024-02-16T15:56:29.278Z,5.03
2024-02-16T16:03:47.835Z,3.65
2024-02-16T16:11:06.710Z,4.35
2024-02-16T16:18:26.402Z,5.13
2024-02-16T16:25:44.899Z,5.22
2024-02-16T16:33:03.908Z,5.68
2024-02-16T16:40:23.952Z,5.28
2024-02-16T16:47:42.665Z,6.35
2024-02-16T16:55:01.072Z,6.53
2024-02-16T17:02:21.733Z,6.78
2024-02-16T17:09:40.089Z,6.60
2024-02-16T17:16:58.559Z,7.25
2024-02-16T17:24:18.338Z,7.13
2024-02-16T17:31:36.744Z,8.20
2024-02-16T17:38:55.347Z,8.00
2024-02-16T17:46:15.175Z,8.10
2024-02-16T17:53:33.546Z,7.30
2024-02-16T18:00:52.184Z,7.22
2024-02-16T18:08:12.166Z,7.00
2024-02-16T18:15:30.657Z,7.10
2024-02-16T18:22:50.326Z,8.75
2024-02-16T18:30:11.782Z,6.53
2024-02-16T18:37:30.368Z,6.20
2024-02-16T18:44:49.960Z,7.05
2024-02-16T18:52:10.727Z,9.50
2024-02-16T18:59:29.380Z,8.75
2024-02-16T19:06:47.951Z,7.97
2024-02-16T19:14:07.783Z,7.57
2024-02-16T19:21:26.091Z,8.93
2024-02-16T19:28:44.380Z,7.57
2024-02-16T19:36:04.861Z,6.75
2024-02-16T19:43:25.438Z,7.13
2024-02-16T19:50:44.870Z,7.43
2024-02-16T19:58:04.621Z,7.78
2024-02-16T20:05:25.199Z,7.30
2024-02-16T20:12:43.680Z,7.40
2024-02-16T20:20:06.379Z,8.93
2024-02-16T20:27:25.809Z,7.32
2024-02-16T20:34:44.295Z,8.07
2024-02-16T20:42:04.593Z,7.75
2024-02-16T20:49:23.521Z,7.50
2024-02-16T20:56:41.882Z,7.18
2024-02-16T21:04:02.049Z,6.97
2024-02-16T21:11:20.652Z,7.05
2024-02-16T21:18:39.086Z,7.65
2024-02-16T21:25:58.920Z,6.95
2024-02-16T21:33:17.977Z,7.03
2024-02-16T21:40:37.043Z,7.38
2024-02-16T21:47:57.055Z,7.35
2024-02-16T21:55:23.437Z,6.82
2024-02-16T22:02:46.121Z,7.72
2024-02-16T22:10:11.065Z,7.13
2024-02-16T22:17:33.705Z,7.60
2024-02-16T22:24:53.406Z,7.88
2024-02-16T22:32:20.238Z,6.88
2024-02-16T22:39:46.836Z,7.30
2024-02-16T22:47:14.743Z,8.48
2024-02-16T22:54:35.826Z,8.50
2024-02-16T23:02:00.891Z,9.02
2024-02-16T23:09:37.384Z,8.68
2024-02-16T23:16:58.699Z,8.73
2024-02-16T23:24:18.194Z,8.30
2024-02-16T23:31:42.344Z,8.05
2024-02-16T23:39:06.815Z,8.02
2024-02-16T23:46:26.985Z,7.78
2024-02-16T23:53:46.421Z,8.88
